Weather at Laurence G Hanscom Field

Public forecast

Using degrees Fahrenheit for public forecast. Weather courtesy of forecast.io.

Current aviation weather report (METAR) for Laurence G Hanscom Field

Retrieved 2020/11/27 15:51 UTC (48 minutes ago):

KBED 271551Z 25003KT 10SM BKN055 09/08 A3002 RMK AO2 SLP180 T00940083

Aviation forecast (TAF) for Laurence G Hanscom Field

Retrieved 2020/11/27 12:40 UTC (4 hours ago):

TAF KBED 271137Z 2712/2812 28003KT 6SM BR BKN001 FM271300 29005KT P6SM BKN040 FM280300 00000KT 4SM BR FEW003